sensor_id;sensor_type;location;lat;lon;timestamp;P1;durP1;ratioP1;P2;durP2;ratioP2
11191;SDS011;5652;48.406;10.820;2022-09-01T00:01:59;16.13;;;10.90;;
11191;SDS011;5652;48.406;10.820;2022-09-01T00:04:33;16.30;;;10.18;;
11191;SDS011;5652;48.406;10.820;2022-09-01T00:07:02;13.77;;;10.15;;
11191;SDS011;5652;48.406;10.820;2022-09-01T00:09:30;13.63;;;10.13;;
11191;SDS011;5652;48.406;10.820;2022-09-01T00:11:57;17.13;;;10.65;;
11191;SDS011;5652;48.406;10.820;2022-09-01T00:14:25;13.70;;;10.00;;
11191;SDS011;5652;48.406;10.820;2022-09-01T00:16:53;16.20;;;10.23;;
11191;SDS011;5652;48.406;10.820;2022-09-01T00:19:21;14.32;;;10.10;;
11191;SDS011;5652;48.406;10.820;2022-09-01T00:21:49;15.63;;;11.07;;
11191;SDS011;5652;48.406;10.820;2022-09-01T00:24:17;15.02;;;10.50;;
11191;SDS011;5652;48.406;10.820;2022-09-01T00:26:45;14.75;;;10.23;;
11191;SDS011;5652;48.406;10.820;2022-09-01T00:29:12;15.10;;;9.88;;
11191;SDS011;5652;48.406;10.820;2022-09-01T00:31:39;14.40;;;10.07;;
11191;SDS011;5652;48.406;10.820;2022-09-01T00:34:07;13.07;;;9.60;;
11191;SDS011;5652;48.406;10.820;2022-09-01T00:36:35;13.37;;;9.70;;
11191;SDS011;5652;48.406;10.820;2022-09-01T00:39:03;15.85;;;10.05;;
11191;SDS011;5652;48.406;10.820;2022-09-01T00:41:32;14.00;;;10.07;;
11191;SDS011;5652;48.406;10.820;2022-09-01T00:44:00;15.45;;;10.32;;
11191;SDS011;5652;48.406;10.820;2022-09-01T00:46:29;12.57;;;9.30;;
11191;SDS011;5652;48.406;10.820;2022-09-01T00:48:58;15.90;;;9.93;;
11191;SDS011;5652;48.406;10.820;2022-09-01T00:51:26;14.25;;;9.82;;
11191;SDS011;5652;48.406;10.820;2022-09-01T00:53:55;16.40;;;10.20;;
11191;SDS011;5652;48.406;10.820;2022-09-01T00:56:23;16.95;;;10.30;;
11191;SDS011;5652;48.406;10.820;2022-09-01T00:58:50;17.45;;;10.02;;
11191;SDS011;5652;48.406;10.820;2022-09-01T01:01:18;15.63;;;10.18;;
11191;SDS011;5652;48.406;10.820;2022-09-01T01:03:47;13.97;;;10.07;;
11191;SDS011;5652;48.406;10.820;2022-09-01T01:06:14;14.32;;;10.07;;
11191;SDS011;5652;48.406;10.820;2022-09-01T01:08:43;14.55;;;10.13;;
11191;SDS011;5652;48.406;10.820;2022-09-01T01:11:15;15.38;;;10.55;;
11191;SDS011;5652;48.406;10.820;2022-09-01T01:13:46;15.23;;;10.43;;
11191;SDS011;5652;48.406;10.820;2022-09-01T01:16:15;14.82;;;9.85;;
11191;SDS011;5652;48.406;10.820;2022-09-01T01:18:42;16.17;;;10.65;;
11191;SDS011;5652;48.406;10.820;2022-09-01T01:21:12;16.38;;;10.60;;
11191;SDS011;5652;48.406;10.820;2022-09-01T01:24:00;17.05;;;10.93;;
11191;SDS011;5652;48.406;10.820;2022-09-01T01:26:29;19.55;;;10.90;;
11191;SDS011;5652;48.406;10.820;2022-09-01T01:28:56;15.20;;;10.40;;
11191;SDS011;5652;48.406;10.820;2022-09-01T01:31:27;14.00;;;10.43;;
11191;SDS011;5652;48.406;10.820;2022-09-01T01:33:54;16.67;;;10.88;;
11191;SDS011;5652;48.406;10.820;2022-09-01T01:36:24;13.90;;;10.47;;
11191;SDS011;5652;48.406;10.820;2022-09-01T01:38:56;15.88;;;10.95;;
11191;SDS011;5652;48.406;10.820;2022-09-01T01:41:26;15.17;;;10.43;;
11191;SDS011;5652;48.406;10.820;2022-09-01T01:43:55;17.08;;;11.82;;
11191;SDS011;5652;48.406;10.820;2022-09-01T01:46:23;16.20;;;11.17;;
11191;SDS011;5652;48.406;10.820;2022-09-01T01:48:51;15.13;;;10.82;;
11191;SDS011;5652;48.406;10.820;2022-09-01T01:51:20;16.05;;;10.93;;
11191;SDS011;5652;48.406;10.820;2022-09-01T01:53:50;14.57;;;10.75;;
11191;SDS011;5652;48.406;10.820;2022-09-01T01:56:19;15.52;;;11.02;;
11191;SDS011;5652;48.406;10.820;2022-09-01T01:58:49;14.73;;;10.43;;
11191;SDS011;5652;48.406;10.820;2022-09-01T02:01:22;15.68;;;10.68;;
11191;SDS011;5652;48.406;10.820;2022-09-01T02:03:50;15.65;;;10.52;;
11191;SDS011;5652;48.406;10.820;2022-09-01T02:06:18;13.82;;;10.25;;
11191;SDS011;5652;48.406;10.820;2022-09-01T02:08:48;16.85;;;10.90;;
11191;SDS011;5652;48.406;10.820;2022-09-01T02:11:16;15.95;;;10.20;;
11191;SDS011;5652;48.406;10.820;2022-09-01T02:13:44;15.73;;;11.00;;
11191;SDS011;5652;48.406;10.820;2022-09-01T02:16:11;15.65;;;11.55;;
11191;SDS011;5652;48.406;10.820;2022-09-01T02:18:40;15.60;;;10.63;;
11191;SDS011;5652;48.406;10.820;2022-09-01T02:21:09;16.43;;;11.13;;
11191;SDS011;5652;48.406;10.820;2022-09-01T02:23:38;16.20;;;11.32;;
11191;SDS011;5652;48.406;10.820;2022-09-01T02:26:06;15.67;;;10.80;;
11191;SDS011;5652;48.406;10.820;2022-09-01T02:28:36;16.20;;;10.75;;
11191;SDS011;5652;48.406;10.820;2022-09-01T02:31:07;18.95;;;12.32;;
11191;SDS011;5652;48.406;10.820;2022-09-01T02:33:35;16.70;;;10.55;;
11191;SDS011;5652;48.406;10.820;2022-09-01T02:36:05;16.33;;;11.68;;
11191;SDS011;5652;48.406;10.820;2022-09-01T02:38:33;15.70;;;11.07;;
11191;SDS011;5652;48.406;10.820;2022-09-01T02:41:00;17.35;;;11.38;;
11191;SDS011;5652;48.406;10.820;2022-09-01T02:43:28;15.88;;;11.00;;
11191;SDS011;5652;48.406;10.820;2022-09-01T02:45:56;19.38;;;12.55;;
11191;SDS011;5652;48.406;10.820;2022-09-01T02:48:25;17.05;;;11.35;;
11191;SDS011;5652;48.406;10.820;2022-09-01T02:50:56;18.80;;;11.77;;
11191;SDS011;5652;48.406;10.820;2022-09-01T02:53:25;16.48;;;11.57;;
11191;SDS011;5652;48.406;10.820;2022-09-01T02:55:52;15.75;;;10.95;;
11191;SDS011;5652;48.406;10.820;2022-09-01T02:58:21;16.08;;;11.50;;
11191;SDS011;5652;48.406;10.820;2022-09-01T03:00:50;16.13;;;11.50;;
11191;SDS011;5652;48.406;10.820;2022-09-01T03:03:18;15.63;;;11.13;;
11191;SDS011;5652;48.406;10.820;2022-09-01T03:05:46;15.45;;;10.93;;
11191;SDS011;5652;48.406;10.820;2022-09-01T03:08:14;16.87;;;10.97;;
11191;SDS011;5652;48.406;10.820;2022-09-01T03:10:43;14.80;;;10.43;;
11191;SDS011;5652;48.406;10.820;2022-09-01T03:13:12;15.07;;;11.07;;
11191;SDS011;5652;48.406;10.820;2022-09-01T03:15:40;17.55;;;11.45;;
11191;SDS011;5652;48.406;10.820;2022-09-01T03:18:07;16.70;;;11.27;;
11191;SDS011;5652;48.406;10.820;2022-09-01T03:20:35;17.02;;;11.60;;
11191;SDS011;5652;48.406;10.820;2022-09-01T03:23:04;16.98;;;11.90;;
11191;SDS011;5652;48.406;10.820;2022-09-01T03:25:32;17.70;;;11.45;;
11191;SDS011;5652;48.406;10.820;2022-09-01T03:28:02;18.65;;;11.77;;
11191;SDS011;5652;48.406;10.820;2022-09-01T03:30:31;17.55;;;11.80;;
11191;SDS011;5652;48.406;10.820;2022-09-01T03:32:59;15.60;;;11.48;;
11191;SDS011;5652;48.406;10.820;2022-09-01T03:35:27;17.30;;;11.27;;
11191;SDS011;5652;48.406;10.820;2022-09-01T03:37:56;16.48;;;11.77;;
11191;SDS011;5652;48.406;10.820;2022-09-01T03:40:23;17.43;;;12.90;;
11191;SDS011;5652;48.406;10.820;2022-09-01T03:42:51;16.85;;;11.73;;
11191;SDS011;5652;48.406;10.820;2022-09-01T03:45:21;15.88;;;11.20;;
11191;SDS011;5652;48.406;10.820;2022-09-01T03:47:50;16.52;;;11.57;;
11191;SDS011;5652;48.406;10.820;2022-09-01T03:50:19;16.25;;;11.98;;
11191;SDS011;5652;48.406;10.820;2022-09-01T03:52:47;18.17;;;12.20;;
11191;SDS011;5652;48.406;10.820;2022-09-01T03:55:17;15.73;;;11.53;;
11191;SDS011;5652;48.406;10.820;2022-09-01T03:57:47;15.90;;;11.20;;
11191;SDS011;5652;48.406;10.820;2022-09-01T04:00:15;15.98;;;11.18;;
11191;SDS011;5652;48.406;10.820;2022-09-01T04:02:46;15.67;;;10.87;;
11191;SDS011;5652;48.406;10.820;2022-09-01T04:05:14;16.38;;;10.52;;
11191;SDS011;5652;48.406;10.820;2022-09-01T04:07:41;16.52;;;11.30;;
11191;SDS011;5652;48.406;10.820;2022-09-01T04:10:11;19.10;;;11.93;;
11191;SDS011;5652;48.406;10.820;2022-09-01T04:12:38;17.10;;;11.40;;
11191;SDS011;5652;48.406;10.820;2022-09-01T04:15:05;18.80;;;11.60;;
11191;SDS011;5652;48.406;10.820;2022-09-01T04:17:33;15.18;;;10.98;;
11191;SDS011;5652;48.406;10.820;2022-09-01T04:20:19;18.95;;;11.60;;
11191;SDS011;5652;48.406;10.820;2022-09-01T04:22:47;15.75;;;11.30;;
11191;SDS011;5652;48.406;10.820;2022-09-01T04:25:16;17.08;;;11.70;;
11191;SDS011;5652;48.406;10.820;2022-09-01T04:27:47;20.10;;;12.38;;
11191;SDS011;5652;48.406;10.820;2022-09-01T04:30:14;19.13;;;11.90;;
11191;SDS011;5652;48.406;10.820;2022-09-01T04:32:41;20.03;;;12.70;;
11191;SDS011;5652;48.406;10.820;2022-09-01T04:35:10;18.42;;;13.07;;
11191;SDS011;5652;48.406;10.820;2022-09-01T04:37:42;19.20;;;13.20;;
11191;SDS011;5652;48.406;10.820;2022-09-01T04:40:10;21.20;;;13.20;;
11191;SDS011;5652;48.406;10.820;2022-09-01T04:42:38;20.08;;;12.30;;
11191;SDS011;5652;48.406;10.820;2022-09-01T04:45:07;19.03;;;13.03;;
11191;SDS011;5652;48.406;10.820;2022-09-01T04:47:37;19.27;;;13.00;;
11191;SDS011;5652;48.406;10.820;2022-09-01T04:50:06;20.42;;;12.48;;
11191;SDS011;5652;48.406;10.820;2022-09-01T04:52:37;17.60;;;12.45;;
11191;SDS011;5652;48.406;10.820;2022-09-01T04:55:07;19.20;;;12.15;;
11191;SDS011;5652;48.406;10.820;2022-09-01T04:57:41;18.83;;;12.43;;
11191;SDS011;5652;48.406;10.820;2022-09-01T05:00:12;17.63;;;12.13;;
11191;SDS011;5652;48.406;10.820;2022-09-01T05:02:46;17.60;;;12.02;;
11191;SDS011;5652;48.406;10.820;2022-09-01T05:05:15;18.83;;;12.30;;
11191;SDS011;5652;48.406;10.820;2022-09-01T05:07:43;16.67;;;11.48;;
11191;SDS011;5652;48.406;10.820;2022-09-01T05:10:12;17.25;;;11.80;;
11191;SDS011;5652;48.406;10.820;2022-09-01T05:12:39;17.05;;;12.07;;
11191;SDS011;5652;48.406;10.820;2022-09-01T05:15:10;17.25;;;11.63;;
11191;SDS011;5652;48.406;10.820;2022-09-01T05:17:37;18.63;;;12.10;;
11191;SDS011;5652;48.406;10.820;2022-09-01T05:20:06;17.80;;;11.70;;
11191;SDS011;5652;48.406;10.820;2022-09-01T05:22:34;17.88;;;11.80;;
11191;SDS011;5652;48.406;10.820;2022-09-01T05:25:05;18.33;;;11.27;;
11191;SDS011;5652;48.406;10.820;2022-09-01T05:27:38;16.30;;;11.33;;
11191;SDS011;5652;48.406;10.820;2022-09-01T05:30:06;17.02;;;11.70;;
11191;SDS011;5652;48.406;10.820;2022-09-01T05:32:34;17.42;;;11.93;;
11191;SDS011;5652;48.406;10.820;2022-09-01T05:35:04;16.00;;;11.48;;
11191;SDS011;5652;48.406;10.820;2022-09-01T05:37:32;17.13;;;11.90;;
11191;SDS011;5652;48.406;10.820;2022-09-01T05:40:01;18.95;;;12.07;;
11191;SDS011;5652;48.406;10.820;2022-09-01T05:42:28;17.95;;;12.23;;
11191;SDS011;5652;48.406;10.820;2022-09-01T05:44:57;18.13;;;11.82;;
11191;SDS011;5652;48.406;10.820;2022-09-01T05:47:26;17.92;;;11.27;;
11191;SDS011;5652;48.406;10.820;2022-09-01T05:49:53;14.82;;;10.90;;
11191;SDS011;5652;48.406;10.820;2022-09-01T05:52:22;14.38;;;10.60;;
11191;SDS011;5652;48.406;10.820;2022-09-01T05:54:50;17.15;;;11.75;;
11191;SDS011;5652;48.406;10.820;2022-09-01T05:57:17;15.35;;;10.95;;
11191;SDS011;5652;48.406;10.820;2022-09-01T05:59:44;15.32;;;10.90;;
11191;SDS011;5652;48.406;10.820;2022-09-01T06:02:18;14.82;;;10.30;;
11191;SDS011;5652;48.406;10.820;2022-09-01T06:04:46;11.90;;;9.10;;
11191;SDS011;5652;48.406;10.820;2022-09-01T06:07:13;13.15;;;9.95;;
11191;SDS011;5652;48.406;10.820;2022-09-01T06:09:42;12.90;;;10.23;;
11191;SDS011;5652;48.406;10.820;2022-09-01T06:12:10;13.95;;;10.65;;
11191;SDS011;5652;48.406;10.820;2022-09-01T06:14:41;15.13;;;10.23;;
11191;SDS011;5652;48.406;10.820;2022-09-01T06:17:08;11.73;;;10.05;;
11191;SDS011;5652;48.406;10.820;2022-09-01T06:19:37;15.00;;;10.30;;
11191;SDS011;5652;48.406;10.820;2022-09-01T06:22:05;11.63;;;9.65;;
11191;SDS011;5652;48.406;10.820;2022-09-01T06:24:34;14.05;;;10.15;;
11191;SDS011;5652;48.406;10.820;2022-09-01T06:27:03;13.23;;;10.10;;
11191;SDS011;5652;48.406;10.820;2022-09-01T06:29:33;13.43;;;9.68;;
11191;SDS011;5652;48.406;10.820;2022-09-01T06:32:03;10.63;;;8.73;;
11191;SDS011;5652;48.406;10.820;2022-09-01T06:34:37;12.32;;;8.85;;
11191;SDS011;5652;48.406;10.820;2022-09-01T06:37:06;12.02;;;8.27;;
11191;SDS011;5652;48.406;10.820;2022-09-01T06:39:33;13.27;;;8.13;;
11191;SDS011;5652;48.406;10.820;2022-09-01T06:42:01;10.38;;;8.30;;
11191;SDS011;5652;48.406;10.820;2022-09-01T06:44:28;10.95;;;7.82;;
11191;SDS011;5652;48.406;10.820;2022-09-01T06:46:57;11.15;;;7.75;;
11191;SDS011;5652;48.406;10.820;2022-09-01T06:49:24;10.10;;;7.87;;
11191;SDS011;5652;48.406;10.820;2022-09-01T06:51:58;9.88;;;7.38;;
11191;SDS011;5652;48.406;10.820;2022-09-01T06:54:26;8.68;;;6.88;;
11191;SDS011;5652;48.406;10.820;2022-09-01T06:56:54;11.18;;;7.65;;
11191;SDS011;5652;48.406;10.820;2022-09-01T06:59:26;10.73;;;7.25;;
11191;SDS011;5652;48.406;10.820;2022-09-01T07:01:54;11.05;;;7.45;;
11191;SDS011;5652;48.406;10.820;2022-09-01T07:04:25;8.65;;;6.78;;
11191;SDS011;5652;48.406;10.820;2022-09-01T07:06:53;9.73;;;7.22;;
11191;SDS011;5652;48.406;10.820;2022-09-01T07:09:22;9.25;;;7.57;;
11191;SDS011;5652;48.406;10.820;2022-09-01T07:11:49;10.53;;;7.53;;
11191;SDS011;5652;48.406;10.820;2022-09-01T07:14:17;10.02;;;6.85;;
11191;SDS011;5652;48.406;10.820;2022-09-01T07:16:45;8.98;;;7.03;;
11191;SDS011;5652;48.406;10.820;2022-09-01T07:19:12;9.30;;;6.97;;
11191;SDS011;5652;48.406;10.820;2022-09-01T07:21:40;10.87;;;6.63;;
11191;SDS011;5652;48.406;10.820;2022-09-01T07:24:07;8.50;;;6.32;;
11191;SDS011;5652;48.406;10.820;2022-09-01T07:26:37;8.40;;;6.35;;
11191;SDS011;5652;48.406;10.820;2022-09-01T07:29:06;6.60;;;5.28;;
11191;SDS011;5652;48.406;10.820;2022-09-01T07:31:36;8.80;;;6.05;;
11191;SDS011;5652;48.406;10.820;2022-09-01T07:34:06;8.43;;;5.88;;
11191;SDS011;5652;48.406;10.820;2022-09-01T07:36:36;7.75;;;5.45;;
11191;SDS011;5652;48.406;10.820;2022-09-01T07:39:04;7.40;;;6.43;;
11191;SDS011;5652;48.406;10.820;2022-09-01T07:41:31;6.22;;;5.18;;
11191;SDS011;5652;48.406;10.820;2022-09-01T07:44:00;6.87;;;5.43;;
11191;SDS011;5652;48.406;10.820;2022-09-01T07:46:29;6.85;;;5.90;;
11191;SDS011;5652;48.406;10.820;2022-09-01T07:48:57;6.68;;;5.82;;
11191;SDS011;5652;48.406;10.820;2022-09-01T07:51:25;8.27;;;5.85;;
11191;SDS011;5652;48.406;10.820;2022-09-01T07:53:53;6.53;;;5.70;;
11191;SDS011;5652;48.406;10.820;2022-09-01T07:56:20;6.28;;;5.35;;
11191;SDS011;5652;48.406;10.820;2022-09-01T07:58:49;6.60;;;4.50;;
11191;SDS011;5652;48.406;10.820;2022-09-01T08:01:18;6.55;;;5.82;;
11191;SDS011;5652;48.406;10.820;2022-09-01T08:03:47;7.78;;;5.82;;
11191;SDS011;5652;48.406;10.820;2022-09-01T08:06:16;7.22;;;5.90;;
11191;SDS011;5652;48.406;10.820;2022-09-01T08:08:45;6.63;;;4.55;;
11191;SDS011;5652;48.406;10.820;2022-09-01T08:11:14;4.75;;;4.10;;
11191;SDS011;5652;48.406;10.820;2022-09-01T08:13:42;5.50;;;4.40;;
11191;SDS011;5652;48.406;10.820;2022-09-01T08:16:10;5.40;;;4.63;;
11191;SDS011;5652;48.406;10.820;2022-09-01T08:18:39;5.20;;;4.40;;
11191;SDS011;5652;48.406;10.820;2022-09-01T08:21:07;7.60;;;4.90;;
11191;SDS011;5652;48.406;10.820;2022-09-01T08:23:34;6.07;;;5.00;;
11191;SDS011;5652;48.406;10.820;2022-09-01T08:26:03;6.43;;;5.47;;
11191;SDS011;5652;48.406;10.820;2022-09-01T08:28:31;7.38;;;6.13;;
11191;SDS011;5652;48.406;10.820;2022-09-01T08:30:58;7.82;;;5.60;;
11191;SDS011;5652;48.406;10.820;2022-09-01T08:33:28;9.23;;;6.28;;
11191;SDS011;5652;48.406;10.820;2022-09-01T08:36:00;8.20;;;5.15;;
11191;SDS011;5652;48.406;10.820;2022-09-01T08:38:27;6.88;;;5.20;;
11191;SDS011;5652;48.406;10.820;2022-09-01T08:40:55;7.07;;;5.03;;
11191;SDS011;5652;48.406;10.820;2022-09-01T08:43:25;7.90;;;5.47;;
11191;SDS011;5652;48.406;10.820;2022-09-01T08:45:55;7.88;;;5.57;;
11191;SDS011;5652;48.406;10.820;2022-09-01T08:48:24;9.05;;;5.40;;
11191;SDS011;5652;48.406;10.820;2022-09-01T08:50:52;6.17;;;4.80;;
11191;SDS011;5652;48.406;10.820;2022-09-01T08:53:24;5.85;;;5.18;;
11191;SDS011;5652;48.406;10.820;2022-09-01T08:55:54;6.03;;;4.90;;
11191;SDS011;5652;48.406;10.820;2022-09-01T08:58:22;7.63;;;5.22;;
11191;SDS011;5652;48.406;10.820;2022-09-01T09:00:52;8.25;;;5.22;;
11191;SDS011;5652;48.406;10.820;2022-09-01T09:03:21;7.43;;;5.22;;
11191;SDS011;5652;48.406;10.820;2022-09-01T09:05:55;5.80;;;4.85;;
11191;SDS011;5652;48.406;10.820;2022-09-01T09:11:07;7.38;;;5.00;;
11191;SDS011;5652;48.406;10.820;2022-09-01T09:13:41;6.33;;;5.00;;
11191;SDS011;5652;48.406;10.820;2022-09-01T09:16:14;7.07;;;4.55;;
11191;SDS011;5652;48.406;10.820;2022-09-01T09:18:46;5.50;;;4.88;;
11191;SDS011;5652;48.406;10.820;2022-09-01T09:21:15;5.97;;;4.55;;
11191;SDS011;5652;48.406;10.820;2022-09-01T09:23:44;6.10;;;4.90;;
11191;SDS011;5652;48.406;10.820;2022-09-01T09:26:13;5.70;;;4.97;;
11191;SDS011;5652;48.406;10.820;2022-09-01T09:28:44;6.05;;;4.90;;
11191;SDS011;5652;48.406;10.820;2022-09-01T09:31:27;6.57;;;5.20;;
11191;SDS011;5652;48.406;10.820;2022-09-01T09:33:54;7.10;;;5.35;;
11191;SDS011;5652;48.406;10.820;2022-09-01T09:36:22;6.25;;;5.03;;
11191;SDS011;5652;48.406;10.820;2022-09-01T09:39:01;9.70;;;5.30;;
11191;SDS011;5652;48.406;10.820;2022-09-01T09:41:30;5.78;;;4.75;;
11191;SDS011;5652;48.406;10.820;2022-09-01T09:43:58;5.78;;;4.45;;
11191;SDS011;5652;48.406;10.820;2022-09-01T09:46:27;7.07;;;5.00;;
11191;SDS011;5652;48.406;10.820;2022-09-01T09:49:05;6.00;;;4.90;;
11191;SDS011;5652;48.406;10.820;2022-09-01T09:51:33;5.47;;;4.95;;
11191;SDS011;5652;48.406;10.820;2022-09-01T09:54:09;5.80;;;4.47;;
11191;SDS011;5652;48.406;10.820;2022-09-01T09:56:38;4.70;;;4.20;;
11191;SDS011;5652;48.406;10.820;2022-09-01T09:59:15;6.93;;;3.90;;
11191;SDS011;5652;48.406;10.820;2022-09-01T10:01:43;5.57;;;4.23;;
11191;SDS011;5652;48.406;10.820;2022-09-01T10:06:58;5.65;;;4.43;;
11191;SDS011;5652;48.406;10.820;2022-09-01T10:09:35;5.40;;;4.57;;
11191;SDS011;5652;48.406;10.820;2022-09-01T10:12:04;4.80;;;3.90;;
11191;SDS011;5652;48.406;10.820;2022-09-01T10:14:33;5.28;;;4.53;;
11191;SDS011;5652;48.406;10.820;2022-09-01T10:17:04;4.63;;;4.15;;
11191;SDS011;5652;48.406;10.820;2022-09-01T10:19:32;5.93;;;4.03;;
11191;SDS011;5652;48.406;10.820;2022-09-01T10:22:00;5.97;;;4.15;;
11191;SDS011;5652;48.406;10.820;2022-09-01T10:24:28;4.95;;;4.43;;
11191;SDS011;5652;48.406;10.820;2022-09-01T10:26:56;5.47;;;4.45;;
11191;SDS011;5652;48.406;10.820;2022-09-01T10:29:27;5.13;;;4.63;;
11191;SDS011;5652;48.406;10.820;2022-09-01T10:31:57;6.10;;;4.60;;
11191;SDS011;5652;48.406;10.820;2022-09-01T10:34:25;5.78;;;5.18;;
11191;SDS011;5652;48.406;10.820;2022-09-01T10:36:54;6.50;;;5.30;;
11191;SDS011;5652;48.406;10.820;2022-09-01T10:39:21;6.38;;;4.35;;
11191;SDS011;5652;48.406;10.820;2022-09-01T10:41:49;5.38;;;4.50;;
11191;SDS011;5652;48.406;10.820;2022-09-01T10:44:18;5.40;;;4.20;;
11191;SDS011;5652;48.406;10.820;2022-09-01T10:46:47;4.95;;;4.45;;
11191;SDS011;5652;48.406;10.820;2022-09-01T10:49:19;5.88;;;4.22;;
11191;SDS011;5652;48.406;10.820;2022-09-01T10:51:46;5.63;;;4.40;;
11191;SDS011;5652;48.406;10.820;2022-09-01T10:57:00;5.90;;;4.10;;
11191;SDS011;5652;48.406;10.820;2022-09-01T10:59:27;5.13;;;4.45;;
11191;SDS011;5652;48.406;10.820;2022-09-01T11:02:09;7.35;;;4.47;;
11191;SDS011;5652;48.406;10.820;2022-09-01T11:07:30;5.15;;;4.65;;
11191;SDS011;5652;48.406;10.820;2022-09-01T11:10:10;5.88;;;4.55;;
11191;SDS011;5652;48.406;10.820;2022-09-01T11:12:43;4.65;;;4.07;;
11191;SDS011;5652;48.406;10.820;2022-09-01T11:15:32;4.57;;;4.07;;
11191;SDS011;5652;48.406;10.820;2022-09-01T11:18:01;5.03;;;4.13;;
11191;SDS011;5652;48.406;10.820;2022-09-01T11:20:30;5.00;;;4.20;;
11191;SDS011;5652;48.406;10.820;2022-09-01T11:22:58;5.07;;;4.13;;
11191;SDS011;5652;48.406;10.820;2022-09-01T11:25:31;6.18;;;4.50;;
11191;SDS011;5652;48.406;10.820;2022-09-01T11:28:00;6.15;;;4.57;;
11191;SDS011;5652;48.406;10.820;2022-09-01T11:30:40;5.45;;;4.88;;
11191;SDS011;5652;48.406;10.820;2022-09-01T11:33:27;5.95;;;4.82;;
11191;SDS011;5652;48.406;10.820;2022-09-01T11:35:59;6.43;;;4.70;;
11191;SDS011;5652;48.406;10.820;2022-09-01T11:38:27;5.15;;;4.50;;
11191;SDS011;5652;48.406;10.820;2022-09-01T11:40:57;5.03;;;4.07;;
11191;SDS011;5652;48.406;10.820;2022-09-01T11:43:24;5.22;;;4.20;;
11191;SDS011;5652;48.406;10.820;2022-09-01T11:45:55;6.93;;;4.53;;
11191;SDS011;5652;48.406;10.820;2022-09-01T11:48:24;5.65;;;3.75;;
11191;SDS011;5652;48.406;10.820;2022-09-01T11:50:56;7.32;;;3.60;;
11191;SDS011;5652;48.406;10.820;2022-09-01T11:53:24;4.90;;;3.60;;
11191;SDS011;5652;48.406;10.820;2022-09-01T11:55:52;4.07;;;2.83;;
11191;SDS011;5652;48.406;10.820;2022-09-01T11:58:29;3.28;;;2.95;;
11191;SDS011;5652;48.406;10.820;2022-09-01T12:01:10;5.78;;;2.90;;
11191;SDS011;5652;48.406;10.820;2022-09-01T12:03:37;4.30;;;2.67;;
11191;SDS011;5652;48.406;10.820;2022-09-01T12:06:07;3.75;;;2.80;;
11191;SDS011;5652;48.406;10.820;2022-09-01T12:08:36;4.03;;;2.63;;
11191;SDS011;5652;48.406;10.820;2022-09-01T12:11:04;2.70;;;2.30;;
11191;SDS011;5652;48.406;10.820;2022-09-01T12:13:32;2.80;;;2.42;;
11191;SDS011;5652;48.406;10.820;2022-09-01T12:16:00;3.53;;;2.35;;
11191;SDS011;5652;48.406;10.820;2022-09-01T12:18:28;3.42;;;2.50;;
11191;SDS011;5652;48.406;10.820;2022-09-01T12:20:56;3.75;;;2.50;;
11191;SDS011;5652;48.406;10.820;2022-09-01T12:23:26;3.17;;;2.50;;
11191;SDS011;5652;48.406;10.820;2022-09-01T12:25:53;4.75;;;2.40;;
11191;SDS011;5652;48.406;10.820;2022-09-01T12:28:21;3.08;;;2.20;;
11191;SDS011;5652;48.406;10.820;2022-09-01T12:30:49;3.37;;;2.30;;
11191;SDS011;5652;48.406;10.820;2022-09-01T12:33:17;2.65;;;2.28;;
11191;SDS011;5652;48.406;10.820;2022-09-01T12:35:46;3.33;;;2.25;;
11191;SDS011;5652;48.406;10.820;2022-09-01T12:38:23;3.20;;;2.47;;
11191;SDS011;5652;48.406;10.820;2022-09-01T12:40:52;2.67;;;2.40;;
11191;SDS011;5652;48.406;10.820;2022-09-01T12:43:27;2.58;;;2.38;;
11191;SDS011;5652;48.406;10.820;2022-09-01T12:45:55;2.42;;;2.20;;
11191;SDS011;5652;48.406;10.820;2022-09-01T12:48:24;2.78;;;2.00;;
11191;SDS011;5652;48.406;10.820;2022-09-01T12:50:53;4.10;;;2.42;;
11191;SDS011;5652;48.406;10.820;2022-09-01T12:53:30;3.15;;;2.65;;
11191;SDS011;5652;48.406;10.820;2022-09-01T12:56:04;3.17;;;2.10;;
11191;SDS011;5652;48.406;10.820;2022-09-01T12:58:31;3.65;;;2.70;;
11191;SDS011;5652;48.406;10.820;2022-09-01T13:01:00;3.00;;;2.35;;
11191;SDS011;5652;48.406;10.820;2022-09-01T13:03:28;3.88;;;2.63;;
11191;SDS011;5652;48.406;10.820;2022-09-01T13:05:56;3.45;;;2.40;;
11191;SDS011;5652;48.406;10.820;2022-09-01T13:08:25;2.35;;;2.15;;
11191;SDS011;5652;48.406;10.820;2022-09-01T13:10:53;6.97;;;2.80;;
11191;SDS011;5652;48.406;10.820;2022-09-01T13:13:22;4.30;;;2.50;;
11191;SDS011;5652;48.406;10.820;2022-09-01T13:15:50;3.15;;;2.47;;
11191;SDS011;5652;48.406;10.820;2022-09-01T13:18:18;3.10;;;2.53;;
11191;SDS011;5652;48.406;10.820;2022-09-01T13:20:46;3.65;;;2.58;;
11191;SDS011;5652;48.406;10.820;2022-09-01T13:23:13;3.00;;;2.50;;
11191;SDS011;5652;48.406;10.820;2022-09-01T13:25:41;3.15;;;2.60;;
11191;SDS011;5652;48.406;10.820;2022-09-01T13:28:10;2.92;;;2.30;;
11191;SDS011;5652;48.406;10.820;2022-09-01T13:30:38;3.28;;;2.30;;
11191;SDS011;5652;48.406;10.820;2022-09-01T13:33:06;3.22;;;2.10;;
11191;SDS011;5652;48.406;10.820;2022-09-01T13:35:35;2.88;;;2.33;;
11191;SDS011;5652;48.406;10.820;2022-09-01T13:38:02;2.70;;;2.00;;
11191;SDS011;5652;48.406;10.820;2022-09-01T13:40:29;2.70;;;2.00;;
11191;SDS011;5652;48.406;10.820;2022-09-01T13:42:56;2.75;;;2.00;;
11191;SDS011;5652;48.406;10.820;2022-09-01T13:45:23;3.83;;;2.10;;
11191;SDS011;5652;48.406;10.820;2022-09-01T13:47:52;2.53;;;2.03;;
11191;SDS011;5652;48.406;10.820;2022-09-01T13:50:20;2.90;;;2.13;;
11191;SDS011;5652;48.406;10.820;2022-09-01T13:52:48;2.30;;;2.10;;
11191;SDS011;5652;48.406;10.820;2022-09-01T13:55:17;2.50;;;2.30;;
11191;SDS011;5652;48.406;10.820;2022-09-01T13:57:45;3.03;;;2.00;;
11191;SDS011;5652;48.406;10.820;2022-09-01T14:00:13;3.30;;;2.10;;
11191;SDS011;5652;48.406;10.820;2022-09-01T14:02:41;3.30;;;2.20;;
11191;SDS011;5652;48.406;10.820;2022-09-01T14:05:14;2.78;;;2.15;;
11191;SDS011;5652;48.406;10.820;2022-09-01T14:07:41;2.20;;;1.95;;
11191;SDS011;5652;48.406;10.820;2022-09-01T14:10:09;2.72;;;1.98;;
11191;SDS011;5652;48.406;10.820;2022-09-01T14:12:36;3.38;;;2.30;;
11191;SDS011;5652;48.406;10.820;2022-09-01T14:15:03;2.72;;;2.00;;
11191;SDS011;5652;48.406;10.820;2022-09-01T14:17:31;5.15;;;2.05;;
11191;SDS011;5652;48.406;10.820;2022-09-01T14:19:58;3.45;;;1.83;;
11191;SDS011;5652;48.406;10.820;2022-09-01T14:22:26;2.33;;;1.90;;
11191;SDS011;5652;48.406;10.820;2022-09-01T14:24:54;1.90;;;1.75;;
11191;SDS011;5652;48.406;10.820;2022-09-01T14:27:21;2.92;;;1.85;;
11191;SDS011;5652;48.406;10.820;2022-09-01T14:29:48;1.90;;;1.70;;
11191;SDS011;5652;48.406;10.820;2022-09-01T14:32:16;2.80;;;1.90;;
11191;SDS011;5652;48.406;10.820;2022-09-01T14:34:43;2.60;;;1.77;;
11191;SDS011;5652;48.406;10.820;2022-09-01T14:37:10;2.55;;;1.90;;
11191;SDS011;5652;48.406;10.820;2022-09-01T14:39:39;2.00;;;1.67;;
11191;SDS011;5652;48.406;10.820;2022-09-01T14:42:06;2.22;;;1.88;;
11191;SDS011;5652;48.406;10.820;2022-09-01T14:44:35;2.10;;;1.77;;
11191;SDS011;5652;48.406;10.820;2022-09-01T14:47:03;2.22;;;1.70;;
11191;SDS011;5652;48.406;10.820;2022-09-01T14:49:30;2.33;;;1.85;;
11191;SDS011;5652;48.406;10.820;2022-09-01T14:52:00;3.08;;;1.98;;
11191;SDS011;5652;48.406;10.820;2022-09-01T14:54:30;2.50;;;1.90;;
11191;SDS011;5652;48.406;10.820;2022-09-01T14:56:59;2.58;;;1.85;;
11191;SDS011;5652;48.406;10.820;2022-09-01T14:59:26;1.98;;;1.75;;